createdAt,value
2023-03-26T00:01:40.419Z,8.13
2023-03-26T00:04:08.541Z,8.11
2023-03-26T00:06:39.929Z,8.05
2023-03-26T00:09:13.779Z,8.01
2023-03-26T00:11:42.978Z,8.01
2023-03-26T00:14:14.140Z,8.02
2023-03-26T00:16:42.912Z,8.00
2023-03-26T00:19:12.835Z,7.97
2023-03-26T00:21:41.702Z,7.96
2023-03-26T00:24:15.390Z,7.95
2023-03-26T00:26:53.431Z,7.92
2023-03-26T00:29:28.172Z,7.89
2023-03-26T00:31:56.417Z,7.84
2023-03-26T00:34:24.966Z,7.83
2023-03-26T00:36:55.028Z,7.76
2023-03-26T00:39:25.765Z,7.72
2023-03-26T00:41:54.723Z,7.73
2023-03-26T00:44:23.468Z,7.72
2023-03-26T00:46:51.679Z,7.73
2023-03-26T00:49:20.071Z,7.68
2023-03-26T00:51:48.315Z,7.62
2023-03-26T00:54:16.573Z,7.60
2023-03-26T00:56:45.453Z,7.60
2023-03-26T00:59:13.590Z,7.60
2023-03-26T01:01:41.732Z,7.57
2023-03-26T01:04:31.022Z,7.52
2023-03-26T01:07:04.912Z,7.48
2023-03-26T01:09:36.178Z,7.48
2023-03-26T01:12:07.046Z,7.46
2023-03-26T01:14:35.780Z,7.48
2023-03-26T01:17:07.070Z,7.50
2023-03-26T01:19:54.378Z,7.49
2023-03-26T01:22:25.604Z,7.47
2023-03-26T01:24:56.635Z,7.47
2023-03-26T01:27:35.829Z,7.47
2023-03-26T01:30:05.012Z,7.48
2023-03-26T01:33:07.414Z,7.47
2023-03-26T01:35:52.891Z,7.39
2023-03-26T01:39:00.572Z,7.38
2023-03-26T01:41:54.015Z,7.36
2023-03-26T01:44:39.994Z,7.31
2023-03-26T01:47:09.828Z,7.25
2023-03-26T01:49:38.251Z,7.19
2023-03-26T01:52:19.609Z,7.18
2023-03-26T01:54:48.157Z,7.12
2023-03-26T01:57:38.133Z,7.11
2023-03-26T02:00:24.120Z,7.11
2023-03-26T02:02:55.233Z,7.10
2023-03-26T02:05:33.631Z,7.10
2023-03-26T02:08:05.534Z,7.09
2023-03-26T02:10:38.225Z,7.11
2023-03-26T02:13:07.043Z,7.09
2023-03-26T02:15:35.189Z,7.10
2023-03-26T02:18:04.260Z,7.09
2023-03-26T02:20:34.127Z,7.10
2023-03-26T02:23:02.157Z,7.15
2023-03-26T02:25:30.452Z,7.18
2023-03-26T02:27:59.138Z,7.17
2023-03-26T02:30:29.897Z,7.18
2023-03-26T02:33:00.184Z,7.20
2023-03-26T02:35:35.543Z,7.19
2023-03-26T02:38:03.828Z,7.18
2023-03-26T02:40:36.716Z,7.19
2023-03-26T02:43:14.052Z,7.20
2023-03-26T02:45:48.090Z,7.13
2023-03-26T02:48:38.467Z,7.13
2023-03-26T02:51:18.383Z,7.13
2023-03-26T02:54:02.109Z,7.12
2023-03-26T02:56:33.584Z,7.09
2023-03-26T02:59:14.906Z,7.07
2023-03-26T03:01:44.828Z,7.07
2023-03-26T03:04:14.211Z,7.07
2023-03-26T03:06:50.261Z,7.07
2023-03-26T03:09:19.105Z,7.10
2023-03-26T03:12:08.487Z,7.11
2023-03-26T03:14:37.860Z,7.09
2023-03-26T03:17:06.525Z,7.06
2023-03-26T03:19:34.477Z,7.05
2023-03-26T03:22:02.946Z,7.07
2023-03-26T03:24:34.155Z,7.07
2023-03-26T03:27:02.172Z,7.05
2023-03-26T03:29:41.469Z,7.03
2023-03-26T03:32:44.819Z,7.01
2023-03-26T03:35:14.150Z,6.97
2023-03-26T03:37:43.777Z,6.94
2023-03-26T03:40:12.513Z,6.91
2023-03-26T03:42:40.877Z,6.88
2023-03-26T03:45:10.467Z,6.86
2023-03-26T03:47:58.790Z,6.82
2023-03-26T03:50:35.453Z,6.80
2023-03-26T03:53:27.172Z,6.79
2023-03-26T03:55:56.883Z,6.79
2023-03-26T03:58:31.200Z,6.77
2023-03-26T04:01:04.739Z,6.75
2023-03-26T04:03:53.177Z,6.73
2023-03-26T04:06:25.320Z,6.69
2023-03-26T04:08:53.915Z,6.67
2023-03-26T04:11:22.673Z,6.62
2023-03-26T04:14:18.312Z,6.59
2023-03-26T04:17:02.246Z,6.56
2023-03-26T04:19:31.427Z,6.54
2023-03-26T04:22:02.905Z,6.49
2023-03-26T04:24:34.271Z,6.54
2023-03-26T04:27:08.843Z,6.50
2023-03-26T04:29:44.200Z,6.46
2023-03-26T04:32:30.474Z,6.46
2023-03-26T04:35:00.309Z,6.42
2023-03-26T04:37:40.212Z,6.44
2023-03-26T04:40:22.047Z,6.41
2023-03-26T04:43:16.521Z,6.39
2023-03-26T04:46:04.926Z,6.35
2023-03-26T04:48:41.198Z,6.36
2023-03-26T04:51:20.404Z,6.37
2023-03-26T04:53:54.554Z,6.35
2023-03-26T04:56:39.114Z,6.35
2023-03-26T04:59:37.546Z,6.32
2023-03-26T05:02:10.793Z,6.30
2023-03-26T05:04:47.156Z,6.34
2023-03-26T05:07:19.852Z,6.34
2023-03-26T05:09:51.147Z,6.34
2023-03-26T05:12:57.575Z,6.37
2023-03-26T05:15:33.557Z,6.36
2023-03-26T05:18:09.029Z,6.36
2023-03-26T05:20:46.433Z,6.40
2023-03-26T05:23:14.611Z,6.43
2023-03-26T05:25:50.886Z,6.46
2023-03-26T05:28:24.497Z,6.50
2023-03-26T05:30:56.514Z,6.54
2023-03-26T05:33:26.357Z,6.59
2023-03-26T05:36:09.301Z,6.67
2023-03-26T05:38:37.444Z,6.74
2023-03-26T05:41:09.426Z,6.80
2023-03-26T05:43:39.667Z,6.85
2023-03-26T05:46:18.208Z,6.89
2023-03-26T05:48:46.698Z,6.95
2023-03-26T05:51:15.774Z,7.01
2023-03-26T05:53:49.484Z,7.06
2023-03-26T05:56:57.342Z,7.13
2023-03-26T05:59:48.423Z,7.19
2023-03-26T06:02:36.108Z,7.23
2023-03-26T06:05:18.321Z,7.30
2023-03-26T06:07:46.341Z,7.33
2023-03-26T06:10:18.008Z,7.37
2023-03-26T06:12:46.978Z,7.41
2023-03-26T06:15:15.747Z,7.45
2023-03-26T06:17:49.422Z,7.49
2023-03-26T06:20:35.715Z,7.55
2023-03-26T06:23:09.968Z,7.57
2023-03-26T06:26:06.646Z,7.59
2023-03-26T06:29:00.575Z,7.66
2023-03-26T06:31:49.085Z,7.76
2023-03-26T06:34:32.638Z,7.86
2023-03-26T06:37:00.729Z,7.94
2023-03-26T06:39:29.414Z,8.01
2023-03-26T06:42:15.389Z,8.02
2023-03-26T06:44:49.360Z,8.04
2023-03-26T06:47:35.844Z,8.08
2023-03-26T06:50:32.275Z,8.18
2023-03-26T06:53:13.597Z,8.24
2023-03-26T06:55:54.649Z,8.33
2023-03-26T06:58:48.771Z,8.43
2023-03-26T07:01:35.889Z,8.51
2023-03-26T07:04:22.416Z,8.59
2023-03-26T07:07:16.644Z,8.60
2023-03-26T07:10:06.072Z,8.64
2023-03-26T07:12:37.010Z,8.69
2023-03-26T07:15:24.115Z,8.74
2023-03-26T07:18:11.503Z,8.82
2023-03-26T07:20:42.555Z,8.89
2023-03-26T07:23:15.642Z,9.00
2023-03-26T07:25:55.568Z,9.01
2023-03-26T07:29:04.057Z,9.01
2023-03-26T07:32:10.809Z,9.08
2023-03-26T07:35:10.398Z,9.17
2023-03-26T07:38:33.066Z,9.25
2023-03-26T07:41:30.859Z,9.33
2023-03-26T07:44:27.669Z,9.40
2023-03-26T07:47:32.555Z,9.45
2023-03-26T07:50:25.599Z,9.51
2023-03-26T07:53:05.886Z,9.58
2023-03-26T07:56:08.057Z,9.68
2023-03-26T07:58:38.943Z,9.74
2023-03-26T08:01:50.572Z,9.80
2023-03-26T08:04:41.669Z,9.85
2023-03-26T08:08:13.817Z,9.89
2023-03-26T08:11:28.142Z,9.99
2023-03-26T08:14:33.522Z,10.08
2023-03-26T08:17:19.759Z,10.18
2023-03-26T08:19:58.213Z,10.24
2023-03-26T08:22:31.367Z,10.31
2023-03-26T08:25:05.363Z,10.41
2023-03-26T08:27:44.260Z,10.51
2023-03-26T08:30:23.605Z,10.57
2023-03-26T08:32:58.738Z,10.61
2023-03-26T08:35:28.011Z,10.61
2023-03-26T08:37:55.977Z,10.65
2023-03-26T08:41:05.342Z,10.69
2023-03-26T08:43:37.414Z,10.79
2023-03-26T08:46:15.329Z,10.83
2023-03-26T08:49:21.053Z,10.90
2023-03-26T08:52:08.298Z,10.96
2023-03-26T08:54:42.418Z,11.00
2023-03-26T08:57:42.611Z,11.14
2023-03-26T09:00:35.885Z,11.27
2023-03-26T09:03:25.429Z,11.44
2023-03-26T09:06:18.033Z,11.55
2023-03-26T09:09:07.415Z,11.61
2023-03-26T09:11:54.391Z,11.60
2023-03-26T09:14:40.686Z,11.58
2023-03-26T09:17:52.014Z,11.61
2023-03-26T09:20:54.760Z,11.65
2023-03-26T09:23:52.780Z,11.68
2023-03-26T09:26:45.915Z,11.75
2023-03-26T09:29:55.640Z,11.83
2023-03-26T09:32:32.766Z,11.94
2023-03-26T09:35:21.120Z,12.04
2023-03-26T09:38:03.515Z,12.11
2023-03-26T09:40:44.141Z,12.14
2023-03-26T09:43:43.363Z,12.17
2023-03-26T09:46:17.638Z,12.25
2023-03-26T09:49:17.526Z,12.35
2023-03-26T09:52:03.277Z,12.41
2023-03-26T09:55:01.629Z,12.48
2023-03-26T09:57:51.311Z,12.53
2023-03-26T10:00:45.114Z,12.61
2023-03-26T10:03:35.093Z,12.72
2023-03-26T10:06:21.518Z,12.79
2023-03-26T10:08:52.492Z,12.86
2023-03-26T10:11:33.261Z,12.97
2023-03-26T10:14:18.996Z,13.02
2023-03-26T10:16:52.690Z,13.05
2023-03-26T10:19:36.134Z,13.04
2023-03-26T10:22:25.765Z,13.09
2023-03-26T10:25:03.721Z,13.09
2023-03-26T10:28:04.039Z,13.06
2023-03-26T10:30:58.399Z,13.02
2023-03-26T10:34:28.747Z,13.08
2023-03-26T10:37:31.961Z,13.15
2023-03-26T10:40:26.236Z,13.29
2023-03-26T10:43:12.460Z,13.47
2023-03-26T10:45:45.413Z,13.56
2023-03-26T10:48:49.085Z,13.60
2023-03-26T10:51:20.071Z,13.63
2023-03-26T10:53:54.899Z,13.66
2023-03-26T10:56:49.463Z,13.67
2023-03-26T10:59:19.111Z,13.77
2023-03-26T11:02:29.094Z,13.87
2023-03-26T11:05:18.082Z,13.97
2023-03-26T11:07:56.222Z,14.10
2023-03-26T11:10:30.350Z,14.17
2023-03-26T11:13:23.167Z,14.18
2023-03-26T11:16:02.898Z,14.17
2023-03-26T11:18:43.262Z,14.14
2023-03-26T11:21:19.854Z,14.03
2023-03-26T11:24:05.338Z,13.91
2023-03-26T11:26:44.508Z,13.84
2023-03-26T11:29:37.000Z,13.91
2023-03-26T11:32:18.011Z,13.98
2023-03-26T11:35:00.915Z,14.01
2023-03-26T11:37:46.466Z,14.12
2023-03-26T11:40:21.554Z,14.20
2023-03-26T11:42:54.284Z,14.31
2023-03-26T11:45:27.654Z,14.37
2023-03-26T11:48:28.899Z,14.31
2023-03-26T11:51:04.516Z,14.28
2023-03-26T11:53:38.598Z,14.28
2023-03-26T11:56:31.038Z,14.25
2023-03-26T11:59:07.144Z,14.20
2023-03-26T12:01:50.491Z,14.12
2023-03-26T12:04:26.567Z,14.07
2023-03-26T12:06:57.707Z,14.02
2023-03-26T12:09:26.784Z,13.99
2023-03-26T12:12:03.393Z,13.98
2023-03-26T12:14:34.631Z,13.94
2023-03-26T12:17:14.443Z,13.89
2023-03-26T12:19:45.515Z,13.67
2023-03-26T12:22:40.263Z,13.39
2023-03-26T12:25:21.575Z,13.20
2023-03-26T12:28:02.885Z,13.08
2023-03-26T12:30:37.466Z,12.97
2023-03-26T12:33:28.935Z,12.94
2023-03-26T12:35:58.507Z,13.03
2023-03-26T12:38:37.466Z,13.17
2023-03-26T12:44:46.932Z,13.36
2023-03-26T12:44:59.227Z,13.52
2023-03-26T12:48:01.349Z,13.53
2023-03-26T12:50:34.063Z,13.50
2023-03-26T12:53:19.473Z,13.43
2023-03-26T12:56:09.421Z,13.38
2023-03-26T12:58:51.481Z,13.41
2023-03-26T13:01:50.548Z,13.52
2023-03-26T13:04:40.261Z,13.62
2023-03-26T13:07:29.096Z,13.75
2023-03-26T13:10:19.755Z,13.84
2023-03-26T13:12:59.657Z,13.91
2023-03-26T13:15:53.169Z,13.94
2023-03-26T13:18:43.555Z,14.01
2023-03-26T13:21:17.425Z,14.14
2023-03-26T13:23:59.152Z,14.24
2023-03-26T13:27:12.525Z,14.30
2023-03-26T13:30:07.995Z,14.38
2023-03-26T13:33:01.278Z,14.48
2023-03-26T13:36:21.883Z,14.60
2023-03-26T13:39:20.368Z,14.68
2023-03-26T13:41:58.606Z,14.72
2023-03-26T13:45:04.423Z,14.77
2023-03-26T13:47:38.623Z,14.79
2023-03-26T13:50:14.505Z,14.79
2023-03-26T13:52:53.023Z,14.80
2023-03-26T13:55:52.076Z,14.81
2023-03-26T13:58:36.455Z,14.84
2023-03-26T14:01:17.699Z,14.81
2023-03-26T14:04:03.522Z,14.85
2023-03-26T14:06:47.700Z,14.90
2023-03-26T14:09:34.711Z,14.87
2023-03-26T14:12:31.798Z,14.83
2023-03-26T14:15:05.592Z,14.84
2023-03-26T14:17:51.178Z,14.88
2023-03-26T14:20:40.241Z,14.91
2023-03-26T14:23:37.947Z,14.94
2023-03-26T14:26:25.179Z,14.94
2023-03-26T14:29:12.016Z,14.92
2023-03-26T14:31:52.078Z,14.96
2023-03-26T14:34:54.269Z,15.00
2023-03-26T14:37:34.756Z,15.02
2023-03-26T14:40:16.727Z,15.01
2023-03-26T14:43:01.577Z,15.02
2023-03-26T14:45:49.207Z,15.06
2023-03-26T14:48:51.370Z,15.10
2023-03-26T14:51:57.183Z,15.12
2023-03-26T14:54:28.355Z,15.10
2023-03-26T14:57:32.567Z,15.06
2023-03-26T15:00:41.995Z,15.02
2023-03-26T15:03:09.950Z,15.00
2023-03-26T15:05:43.761Z,14.98
2023-03-26T15:08:39.249Z,14.98
2023-03-26T15:11:25.483Z,14.97
2023-03-26T15:14:03.979Z,15.00
2023-03-26T15:17:11.374Z,15.04
2023-03-26T15:19:59.052Z,15.09
2023-03-26T15:23:00.703Z,15.11
2023-03-26T15:26:00.699Z,15.09
2023-03-26T15:28:46.980Z,15.11
2023-03-26T15:31:24.267Z,15.14
2023-03-26T15:34:19.967Z,15.13
2023-03-26T15:36:58.948Z,15.09
2023-03-26T15:39:59.948Z,15.07
2023-03-26T15:42:45.741Z,15.03
2023-03-26T15:45:35.353Z,15.00
2023-03-26T15:48:27.495Z,15.01
2023-03-26T15:51:14.482Z,14.99
2023-03-26T15:54:07.429Z,14.98
2023-03-26T15:56:56.662Z,14.93
2023-03-26T15:59:37.296Z,14.87
2023-03-26T16:02:34.909Z,14.84
2023-03-26T16:05:03.231Z,14.81
2023-03-26T16:07:52.635Z,14.75
2023-03-26T16:10:40.798Z,14.67
2023-03-26T16:13:31.443Z,14.61
2023-03-26T16:16:02.450Z,14.56
2023-03-26T16:18:37.298Z,14.51
2023-03-26T16:21:37.360Z,14.46
2023-03-26T16:24:10.258Z,14.40
2023-03-26T16:26:44.264Z,14.34
2023-03-26T16:29:18.320Z,14.30
2023-03-26T16:32:29.826Z,14.23
2023-03-26T16:35:10.006Z,14.16
2023-03-26T16:37:46.073Z,14.11
2023-03-26T16:40:23.612Z,14.08
2023-03-26T16:43:01.615Z,14.03
2023-03-26T16:45:48.041Z,13.98
2023-03-26T16:48:37.847Z,13.93
2023-03-26T16:51:39.800Z,13.87
2023-03-26T16:54:32.295Z,13.81
2023-03-26T16:57:16.305Z,13.75
2023-03-26T17:00:06.756Z,13.69
2023-03-26T17:02:41.774Z,13.64
2023-03-26T17:05:41.182Z,13.60
2023-03-26T17:08:38.565Z,13.57
2023-03-26T17:11:38.494Z,13.53
2023-03-26T17:14:22.516Z,13.47
2023-03-26T17:17:07.342Z,13.41
2023-03-26T17:20:09.324Z,13.34
2023-03-26T17:22:52.157Z,13.27
2023-03-26T17:25:45.936Z,13.22
2023-03-26T17:28:39.638Z,13.17
2023-03-26T17:31:26.461Z,13.12
2023-03-26T17:33:54.709Z,13.05
2023-03-26T17:36:41.558Z,12.99
2023-03-26T17:39:20.380Z,12.93
2023-03-26T17:42:13.337Z,12.87
2023-03-26T17:44:55.837Z,12.79
2023-03-26T17:47:38.174Z,12.71
2023-03-26T17:50:22.785Z,12.64
2023-03-26T17:52:56.535Z,12.55
2023-03-26T17:55:30.972Z,12.48
2023-03-26T17:58:05.287Z,12.39
2023-03-26T18:00:42.416Z,12.32
2023-03-26T18:03:44.046Z,12.24
2023-03-26T18:06:41.240Z,12.15
2023-03-26T18:09:34.053Z,12.08
2023-03-26T18:12:41.510Z,12.01
2023-03-26T18:15:34.862Z,11.95
2023-03-26T18:18:18.071Z,11.90
2023-03-26T18:20:49.302Z,11.83
2023-03-26T18:23:26.858Z,11.80
2023-03-26T18:26:32.574Z,11.75
2023-03-26T18:29:16.121Z,11.69
2023-03-26T18:31:46.158Z,11.65
2023-03-26T18:34:20.753Z,11.60
2023-03-26T18:36:58.075Z,11.55
2023-03-26T18:39:29.214Z,11.52
2023-03-26T18:41:58.427Z,11.50
2023-03-26T18:44:27.479Z,11.43
2023-03-26T18:47:12.993Z,11.38
2023-03-26T18:49:45.183Z,11.30
2023-03-26T18:52:16.919Z,11.23
2023-03-26T18:54:50.398Z,11.18
2023-03-26T18:57:26.969Z,11.14
2023-03-26T19:00:18.512Z,11.11
2023-03-26T19:02:50.011Z,11.06
2023-03-26T19:05:19.732Z,11.04
2023-03-26T19:07:48.482Z,11.00
2023-03-26T19:10:21.450Z,10.97
2023-03-26T19:13:02.077Z,10.95
2023-03-26T19:15:35.466Z,10.94
2023-03-26T19:18:09.940Z,10.93
2023-03-26T19:20:45.268Z,10.92
2023-03-26T19:23:17.839Z,10.88
2023-03-26T19:25:52.049Z,10.87
2023-03-26T19:28:24.582Z,10.85
2023-03-26T19:30:56.308Z,10.83
2023-03-26T19:33:32.667Z,10.83
2023-03-26T19:36:16.074Z,10.78
2023-03-26T19:38:53.402Z,10.73
2023-03-26T19:41:26.675Z,10.71
2023-03-26T19:43:58.901Z,10.71
2023-03-26T19:46:32.219Z,10.68
2023-03-26T19:49:00.303Z,10.64
2023-03-26T19:51:34.630Z,10.60
2023-03-26T19:54:12.601Z,10.57
2023-03-26T19:56:40.709Z,10.60
2023-03-26T19:59:08.820Z,10.53
2023-03-26T20:01:37.510Z,10.46
2023-03-26T20:04:10.092Z,10.41
2023-03-26T20:06:43.617Z,10.38
2023-03-26T20:09:13.326Z,10.34
2023-03-26T20:11:42.354Z,10.32
2023-03-26T20:14:16.700Z,10.26
2023-03-26T20:16:45.621Z,10.24
2023-03-26T20:19:15.394Z,10.19
2023-03-26T20:21:44.895Z,10.13
2023-03-26T20:24:17.916Z,10.08
2023-03-26T20:26:46.533Z,10.05
2023-03-26T20:29:15.081Z,10.02
2023-03-26T20:31:44.348Z,9.94
2023-03-26T20:34:21.996Z,9.87
2023-03-26T20:37:01.154Z,9.83
2023-03-26T20:39:29.691Z,9.82
2023-03-26T20:41:57.744Z,9.81
2023-03-26T20:44:27.491Z,9.79
2023-03-26T20:46:57.370Z,9.81
2023-03-26T20:49:25.822Z,9.81
2023-03-26T20:51:54.299Z,9.76
2023-03-26T20:54:24.629Z,9.77
2023-03-26T20:56:54.450Z,9.74
2023-03-26T20:59:26.682Z,9.72
2023-03-26T21:01:57.585Z,9.71
2023-03-26T21:04:27.412Z,9.73
2023-03-26T21:07:06.704Z,9.73
2023-03-26T21:09:39.652Z,9.71
2023-03-26T21:12:16.992Z,9.68
2023-03-26T21:14:47.596Z,9.67
2023-03-26T21:17:22.622Z,9.67
2023-03-26T21:19:50.806Z,9.66
2023-03-26T21:22:36.213Z,9.65
2023-03-26T21:25:17.521Z,9.64
2023-03-26T21:28:22.219Z,9.58
2023-03-26T21:30:55.908Z,9.55
2023-03-26T21:33:24.070Z,9.54
2023-03-26T21:35:52.704Z,9.54
2023-03-26T21:38:21.582Z,9.56
2023-03-26T21:40:58.643Z,9.57
2023-03-26T21:43:27.309Z,9.59
2023-03-26T21:45:57.461Z,9.62
2023-03-26T21:48:25.792Z,9.62
2023-03-26T21:50:54.033Z,9.62
2023-03-26T21:53:22.687Z,9.67
2023-03-26T21:56:02.055Z,9.72
2023-03-26T21:58:36.055Z,9.77
2023-03-26T22:01:27.722Z,9.81
2023-03-26T22:04:10.401Z,9.84
2023-03-26T22:06:46.210Z,9.84
2023-03-26T22:09:20.725Z,9.87
2023-03-26T22:11:54.483Z,9.88
2023-03-26T22:14:22.381Z,9.87
2023-03-26T22:16:50.297Z,9.87
2023-03-26T22:19:18.248Z,9.84
2023-03-26T22:21:46.312Z,9.83
2023-03-26T22:24:14.207Z,9.81
2023-03-26T22:26:42.122Z,9.80
2023-03-26T22:29:10.211Z,9.81
2023-03-26T22:31:39.401Z,9.81
2023-03-26T22:34:07.968Z,9.81
2023-03-26T22:36:37.259Z,9.85
2023-03-26T22:39:07.299Z,9.88
2023-03-26T22:41:35.240Z,9.90
2023-03-26T22:44:16.729Z,9.92
2023-03-26T22:46:51.453Z,9.94
2023-03-26T22:49:20.173Z,9.97
2023-03-26T22:51:48.202Z,10.01
2023-03-26T22:54:16.051Z,10.05
2023-03-26T22:56:44.078Z,10.06
2023-03-26T22:59:12.124Z,10.08
2023-03-26T23:01:40.471Z,10.09
2023-03-26T23:04:08.416Z,10.04
2023-03-26T23:06:36.309Z,9.98
2023-03-26T23:09:07.159Z,9.99
2023-03-26T23:11:35.064Z,9.95
2023-03-26T23:14:02.966Z,9.92
2023-03-26T23:16:31.785Z,9.90
2023-03-26T23:18:59.716Z,9.87
2023-03-26T23:21:27.706Z,9.83
2023-03-26T23:23:55.749Z,9.82
2023-03-26T23:26:24.560Z,9.84
2023-03-26T23:28:52.576Z,9.84
2023-03-26T23:31:20.540Z,9.84
2023-03-26T23:33:50.507Z,9.82
2023-03-26T23:36:20.179Z,9.79
2023-03-26T23:38:49.045Z,9.76
2023-03-26T23:41:21.625Z,9.78
2023-03-26T23:43:53.610Z,9.79
2023-03-26T23:46:30.265Z,9.77
2023-03-26T23:49:04.767Z,9.76
2023-03-26T23:51:33.223Z,9.78
2023-03-26T23:54:01.661Z,9.74
2023-03-26T23:56:30.035Z,9.74
2023-03-26T23:58:59.444Z,9.76
